Hlavní strana
METAR-TAF:

METAR-TAF

Letiště :

Teherán, Írán

Letiště Teherán-Mehrabád

zeměpisná šířka: 35-41N, zeměpisná délka: 051-21E, výška: 1204 m

Aktuální stav počasí

Zpráva byla vytvořena před 24 minutami, v 09:00 UTC
Západní vítr 14 kt
Teplota 14°C
Vlhkost vzduchu 26%
Tlak 1016 hPa
Viditelnost: 6000 m
Skoro jasno ve výšce 3500 ft

METAR: OIII 240900Z 27014KT 6000 FEW035 14/M05 Q1016 A3000 NOSIG

Čas: 12:54 (09:24 UTC)

Předpověď počasí

Zpráva byla vytvořena před 4 hodinami a 14 minutami, v 05:10 UTC
Předpověď platná od 24 v 06 UTC do 25 v 12 UTC
Západní vítr 10 kt
Viditelnost: 8000 m
Skoro jasno ve výšce 4000 ft
Dočasný
od 25 v 00 UTC do 25 v 04 UTC
Viditelnost: 4000 m
zákal
Změna
od 25 v 06 UTC do 25 v 07 UTC
Jihovýchodní vítr 8 kt

TAF: OIII 240510Z 2406/2512 26005MPS 8000 FEW040 TEMPO 2500/2504 4000 HZ BECMG 2506/2507 13004MPS

Stav a předpovědi počasí z více než 4 000 letišť (zprávy METAR a TAF).

Červené a žluté tečky na mapě představují dostupné meteorologické stanice.

Když kurzor umístíte na tečku, zobrazí se název stanice.

Pak kliknutím zobrazíte stav a předpověď počasí.

Chcete-li změnit mapu, kliknutím na zelené tlačítko se znaménkem +mapu přiblížíte, kliknutím na zelené tlačítko se znaménkem – mapu oddálíte a kliknutím na zelené šipky přejdete na sousední mapy.


METAR-TAF: